createdAt,value
2023-03-16T00:01:50.411Z,91.40
2023-03-16T00:04:24.582Z,86.90
2023-03-16T00:06:59.055Z,98.10
2023-03-16T00:09:35.336Z,90.00
2023-03-16T00:12:15.395Z,91.40
2023-03-16T00:14:49.648Z,85.40
2023-03-16T00:17:39.692Z,86.60
2023-03-16T00:20:23.795Z,91.00
2023-03-16T00:22:57.729Z,84.40
2023-03-16T00:25:31.793Z,128.60
2023-03-16T00:28:08.941Z,128.10
2023-03-16T00:30:39.641Z,127.50
2023-03-16T00:33:24.572Z,127.10
2023-03-16T00:36:07.909Z,121.10
2023-03-16T00:38:54.710Z,97.90
2023-03-16T00:41:37.714Z,97.50
2023-03-16T00:44:09.296Z,100.20
2023-03-16T00:46:43.059Z,95.10
2023-03-16T00:49:25.083Z,97.90
2023-03-16T00:51:53.770Z,107.00
2023-03-16T00:54:40.345Z,103.00
2023-03-16T00:57:31.025Z,96.70
2023-03-16T01:00:08.942Z,95.80
2023-03-16T01:02:41.774Z,105.40
2023-03-16T01:05:21.575Z,101.30
2023-03-16T01:07:54.801Z,114.80
2023-03-16T01:10:36.999Z,97.80
2023-03-16T01:13:07.894Z,96.20
2023-03-16T01:15:45.720Z,103.20
2023-03-16T01:18:24.243Z,99.30
2023-03-16T01:21:11.265Z,105.90
2023-03-16T01:23:50.169Z,106.80
2023-03-16T01:26:26.883Z,97.00
2023-03-16T01:29:04.100Z,101.50
2023-03-16T01:31:48.009Z,105.40
2023-03-16T01:34:27.537Z,98.40
2023-03-16T01:37:11.643Z,99.20
2023-03-16T01:40:14.188Z,91.50
2023-03-16T01:43:06.966Z,95.60
2023-03-16T01:46:07.382Z,93.30
2023-03-16T01:49:09.799Z,87.50
2023-03-16T01:51:51.470Z,89.60
2023-03-16T01:54:27.649Z,87.70
2023-03-16T01:57:04.356Z,84.20
2023-03-16T01:59:46.242Z,87.30
2023-03-16T02:02:27.719Z,87.30
2023-03-16T02:05:35.243Z,86.10
2023-03-16T02:08:09.980Z,92.80
2023-03-16T02:10:46.225Z,88.70
2023-03-16T02:13:23.298Z,87.90
2023-03-16T02:16:06.149Z,89.00
2023-03-16T02:18:42.882Z,92.80
2023-03-16T02:21:16.480Z,79.90
2023-03-16T02:23:50.374Z,88.20
2023-03-16T02:26:53.435Z,84.50
2023-03-16T02:30:08.536Z,83.50
2023-03-16T02:32:53.527Z,76.70
2023-03-16T02:35:26.082Z,76.30
2023-03-16T02:38:10.500Z,63.30
2023-03-16T02:40:59.950Z,65.50
2023-03-16T02:43:50.384Z,56.20
2023-03-16T02:46:37.908Z,52.70
2023-03-16T02:49:25.682Z,53.60
2023-03-16T02:52:09.494Z,54.00
2023-03-16T02:54:43.536Z,49.30
2023-03-16T02:57:27.272Z,50.00
2023-03-16T03:00:21.706Z,49.50
2023-03-16T03:02:54.835Z,48.80
2023-03-16T03:05:32.702Z,53.20
2023-03-16T03:08:09.755Z,44.90
2023-03-16T03:10:39.573Z,44.20
2023-03-16T03:13:15.499Z,50.40
2023-03-16T03:15:54.122Z,40.70
2023-03-16T03:18:31.150Z,44.20
2023-03-16T03:21:04.001Z,41.40
2023-03-16T03:23:37.999Z,41.60
2023-03-16T03:26:21.350Z,42.20
2023-03-16T03:29:13.854Z,42.60
2023-03-16T03:31:51.580Z,38.10
2023-03-16T03:34:31.191Z,43.20
2023-03-16T03:37:09.266Z,40.60
2023-03-16T03:39:44.752Z,46.40
2023-03-16T03:42:28.128Z,38.50
2023-03-16T03:45:12.487Z,42.70
2023-03-16T03:47:48.406Z,40.90
2023-03-16T03:50:24.935Z,36.80
2023-03-16T03:53:13.346Z,36.10
2023-03-16T03:56:10.705Z,45.90
2023-03-16T03:58:54.945Z,39.30
2023-03-16T04:01:40.192Z,37.80
2023-03-16T04:04:16.442Z,40.00
2023-03-16T04:06:51.291Z,35.10
2023-03-16T04:09:23.454Z,35.80
2023-03-16T04:12:01.635Z,32.30
2023-03-16T04:14:35.695Z,35.20
2023-03-16T04:17:14.006Z,30.60
2023-03-16T04:19:48.866Z,32.10
2023-03-16T04:22:23.519Z,32.50
2023-03-16T04:24:58.081Z,30.50
2023-03-16T04:27:36.266Z,29.30
2023-03-16T04:30:14.046Z,29.20
2023-03-16T04:32:52.070Z,33.70
2023-03-16T04:35:27.216Z,36.40
2023-03-16T04:38:02.749Z,32.30
2023-03-16T04:40:44.886Z,31.00
2023-03-16T04:43:20.657Z,27.10
2023-03-16T04:45:52.455Z,31.50
2023-03-16T04:48:26.700Z,30.50
2023-03-16T04:51:03.327Z,28.30
2023-03-16T04:53:48.154Z,36.50
2023-03-16T04:56:25.395Z,32.20
2023-03-16T04:59:05.789Z,32.90
2023-03-16T05:01:45.970Z,33.70
2023-03-16T05:04:19.962Z,49.30
2023-03-16T05:07:00.074Z,32.80
2023-03-16T05:09:35.947Z,37.20
2023-03-16T05:14:41.138Z,29.90
2023-03-16T05:17:20.019Z,39.80
2023-03-16T05:19:52.149Z,42.10
2023-03-16T05:22:33.392Z,33.30
2023-03-16T05:25:22.062Z,30.40
2023-03-16T05:27:56.686Z,30.90
2023-03-16T05:30:40.302Z,42.30
2023-03-16T05:33:12.964Z,34.10
2023-03-16T05:35:43.915Z,28.10
2023-03-16T05:38:18.097Z,32.90
2023-03-16T05:41:06.383Z,35.10
2023-03-16T05:44:10.409Z,31.80
2023-03-16T05:49:57.114Z,29.30
2023-03-16T05:52:44.906Z,33.00
2023-03-16T05:55:31.079Z,30.20
2023-03-16T05:58:17.770Z,30.00
2023-03-16T06:00:47.145Z,31.70
2023-03-16T06:03:30.739Z,31.40
2023-03-16T06:06:08.408Z,37.50
2023-03-16T06:08:50.534Z,49.70
2023-03-16T06:11:36.761Z,57.30
2023-03-16T06:14:08.783Z,58.90
2023-03-16T06:16:51.126Z,52.20
2023-03-16T06:19:31.667Z,92.10
2023-03-16T06:22:17.161Z,107.20
2023-03-16T06:24:49.213Z,46.80
2023-03-16T06:27:21.880Z,32.80
2023-03-16T06:30:16.526Z,35.30
2023-03-16T06:32:48.722Z,36.70
2023-03-16T06:35:18.085Z,29.50
2023-03-16T06:38:01.822Z,31.60
2023-03-16T06:41:01.891Z,26.10
2023-03-16T06:43:51.601Z,22.70
2023-03-16T06:46:24.709Z,24.90
2023-03-16T06:49:02.766Z,32.80
2023-03-16T06:51:39.635Z,25.90
2023-03-16T06:54:36.148Z,25.20
2023-03-16T06:57:12.219Z,27.70
2023-03-16T06:59:47.059Z,21.50
2023-03-16T07:02:27.368Z,24.90
2023-03-16T07:05:05.488Z,20.30
2023-03-16T07:07:43.131Z,29.00
2023-03-16T07:10:20.167Z,24.60
2023-03-16T07:12:50.275Z,24.10
2023-03-16T07:15:27.660Z,26.00
2023-03-16T07:18:09.641Z,31.20
2023-03-16T07:20:44.165Z,26.20
2023-03-16T07:23:15.270Z,25.20
2023-03-16T07:25:48.407Z,19.30
2023-03-16T07:28:25.903Z,24.30
2023-03-16T07:31:17.376Z,26.50
2023-03-16T07:33:59.988Z,23.80
2023-03-16T07:36:38.288Z,23.60
2023-03-16T07:39:17.281Z,19.90
2023-03-16T07:42:04.244Z,17.90
2023-03-16T07:45:15.415Z,22.90
2023-03-16T07:48:14.162Z,20.50
2023-03-16T07:50:56.103Z,17.10
2023-03-16T07:53:38.516Z,23.10
2023-03-16T07:56:27.216Z,19.20
2023-03-16T07:59:05.728Z,20.90
2023-03-16T08:01:44.269Z,21.80
2023-03-16T08:04:42.419Z,19.10
2023-03-16T08:07:29.187Z,21.20
2023-03-16T08:10:19.222Z,23.00
2023-03-16T08:13:10.821Z,17.30
2023-03-16T08:16:11.805Z,17.50
2023-03-16T08:18:44.786Z,48.10
2023-03-16T08:21:17.836Z,22.00
2023-03-16T08:23:54.089Z,22.30
2023-03-16T08:26:31.311Z,22.20
2023-03-16T08:29:03.301Z,20.40
2023-03-16T08:31:42.235Z,17.60
2023-03-16T08:34:24.154Z,22.50
2023-03-16T08:36:56.390Z,17.40
2023-03-16T08:39:27.565Z,19.00
2023-03-16T08:42:01.431Z,17.50
2023-03-16T08:44:39.625Z,13.00
2023-03-16T08:47:13.725Z,27.30
2023-03-16T08:49:46.924Z,14.60
2023-03-16T08:52:54.814Z,22.30
2023-03-16T08:55:50.461Z,23.40
2023-03-16T08:58:33.043Z,19.00
2023-03-16T09:01:05.188Z,14.60
2023-03-16T09:03:56.648Z,18.10
2023-03-16T09:06:41.398Z,13.80
2023-03-16T09:09:27.800Z,11.90
2023-03-16T09:11:59.411Z,14.10
2023-03-16T09:14:31.811Z,11.30
2023-03-16T09:17:02.518Z,20.00
2023-03-16T09:19:50.098Z,18.60
2023-03-16T09:22:26.936Z,17.30
2023-03-16T09:24:58.399Z,23.90
2023-03-16T09:27:36.737Z,17.50
2023-03-16T09:30:11.706Z,13.70
2023-03-16T09:32:58.483Z,16.30
2023-03-16T09:35:49.809Z,21.00
2023-03-16T09:38:44.362Z,16.40
2023-03-16T09:42:26.105Z,11.10
2023-03-16T09:46:16.089Z,13.60
2023-03-16T09:48:48.315Z,13.30
2023-03-16T09:52:10.460Z,13.40
2023-03-16T09:55:56.492Z,20.40
2023-03-16T09:58:59.321Z,13.20
2023-03-16T10:02:07.804Z,11.50
2023-03-16T10:05:21.377Z,11.30
2023-03-16T10:08:28.178Z,12.30
2023-03-16T10:11:36.248Z,11.00
2023-03-16T10:14:55.331Z,27.40
2023-03-16T10:18:13.331Z,12.70
2023-03-16T10:20:57.590Z,10.80
2023-03-16T10:23:44.997Z,8.70
2023-03-16T10:29:37.484Z,9.20
2023-03-16T10:32:34.060Z,6.70
2023-03-16T10:35:57.007Z,11.10
2023-03-16T10:39:22.590Z,12.10
2023-03-16T10:42:21.993Z,13.60
2023-03-16T10:45:04.052Z,9.90
2023-03-16T10:47:43.127Z,13.70
2023-03-16T10:50:35.941Z,10.80
2023-03-16T10:53:39.136Z,10.70
2023-03-16T10:59:41.158Z,14.30
2023-03-16T11:02:41.708Z,11.10
2023-03-16T11:05:32.491Z,11.40
2023-03-16T11:08:15.907Z,20.50
2023-03-16T11:10:59.791Z,15.60
2023-03-16T11:13:53.376Z,12.60
2023-03-16T11:17:03.308Z,14.40
2023-03-16T11:20:14.785Z,12.00
2023-03-16T11:22:55.224Z,9.90
2023-03-16T11:25:48.516Z,9.90
2023-03-16T11:28:30.871Z,10.30
2023-03-16T11:31:42.508Z,9.60
2023-03-16T11:34:23.142Z,14.90
2023-03-16T11:37:18.340Z,14.70
2023-03-16T11:40:32.858Z,10.50
2023-03-16T11:43:21.748Z,10.30
2023-03-16T11:46:17.880Z,10.00
2023-03-16T11:49:38.836Z,10.30
2023-03-16T11:52:49.478Z,8.70
2023-03-16T11:55:41.656Z,7.90
2023-03-16T11:58:42.059Z,12.70
2023-03-16T12:01:58.177Z,8.00
2023-03-16T12:04:50.514Z,10.20
2023-03-16T12:07:39.554Z,9.00
2023-03-16T12:10:32.470Z,13.40
2023-03-16T12:13:17.318Z,10.40
2023-03-16T12:16:13.955Z,12.70
2023-03-16T12:19:34.314Z,10.90
2023-03-16T12:22:44.152Z,11.80
2023-03-16T12:25:51.279Z,12.50
2023-03-16T12:28:31.908Z,9.70
2023-03-16T12:31:22.501Z,13.90
2023-03-16T12:34:16.245Z,10.20
2023-03-16T12:37:20.850Z,8.40
2023-03-16T12:40:31.214Z,9.50
2023-03-16T12:43:39.393Z,11.50
2023-03-16T12:46:58.598Z,13.00
2023-03-16T12:49:39.122Z,8.10
2023-03-16T12:52:14.861Z,11.70
2023-03-16T12:55:25.814Z,14.60
2023-03-16T12:58:14.499Z,12.80
2023-03-16T13:01:04.958Z,8.10
2023-03-16T13:03:39.198Z,9.10
2023-03-16T13:06:29.796Z,9.30
2023-03-16T13:09:14.184Z,12.40
2023-03-16T13:12:48.869Z,7.90
2023-03-16T13:16:02.569Z,10.80
2023-03-16T13:19:51.804Z,12.80
2023-03-16T13:23:14.386Z,8.90
2023-03-16T13:26:17.858Z,10.10
2023-03-16T13:29:44.340Z,6.20
2023-03-16T13:37:14.630Z,7.20
2023-03-16T13:41:17.551Z,8.60
2023-03-16T13:43:50.645Z,7.50
2023-03-16T13:54:01.810Z,12.20
2023-03-16T13:57:14.436Z,7.20
2023-03-16T14:00:52.229Z,7.40
2023-03-16T14:29:10.270Z,14.80
2023-03-16T15:08:49.063Z,13.60
2023-03-16T15:11:57.351Z,10.90
2023-03-16T15:14:54.981Z,11.40
2023-03-16T15:17:54.187Z,10.00
2023-03-16T15:20:46.098Z,7.70
2023-03-16T15:23:33.187Z,10.50
2023-03-16T15:26:11.354Z,14.40
2023-03-16T15:28:45.635Z,52.90
2023-03-16T15:31:21.122Z,15.70
2023-03-16T15:33:57.238Z,11.00
2023-03-16T15:36:28.985Z,9.90
2023-03-16T15:39:03.531Z,18.30
2023-03-16T15:41:46.756Z,21.70
2023-03-16T15:44:26.004Z,22.60
2023-03-16T15:46:57.313Z,24.40
2023-03-16T15:49:47.269Z,39.00
2023-03-16T15:52:39.890Z,40.20
2023-03-16T15:55:36.394Z,33.20
2023-03-16T15:58:26.996Z,32.50
2023-03-16T16:01:03.254Z,23.10
2023-03-16T16:03:34.581Z,23.60
2023-03-16T16:06:13.976Z,25.70
2023-03-16T16:08:48.916Z,23.10
2023-03-16T16:11:26.137Z,23.20
2023-03-16T16:14:07.057Z,33.00
2023-03-16T16:16:59.273Z,34.90
2023-03-16T16:19:38.348Z,36.10
2023-03-16T16:22:13.836Z,33.50
2023-03-16T16:24:55.188Z,36.00
2023-03-16T16:27:28.995Z,39.80
2023-03-16T16:33:31.773Z,42.00
2023-03-16T16:36:29.193Z,40.20
2023-03-16T16:39:10.047Z,33.50
2023-03-16T16:42:02.233Z,35.50
2023-03-16T16:44:40.273Z,36.00
2023-03-16T16:47:23.281Z,42.70
2023-03-16T16:50:31.329Z,48.90
2023-03-16T16:53:24.886Z,48.20
2023-03-16T16:56:00.124Z,46.40
2023-03-16T16:58:47.532Z,45.20
2023-03-16T17:01:53.153Z,43.40
2023-03-16T17:08:46.343Z,49.10
2023-03-16T17:12:34.136Z,58.40
2023-03-16T17:16:19.570Z,53.70
2023-03-16T17:23:59.615Z,42.20
2023-03-16T17:27:13.659Z,45.40
2023-03-16T17:30:16.499Z,91.80
2023-03-16T17:33:05.863Z,93.70
2023-03-16T17:36:21.041Z,81.50
2023-03-16T17:39:36.865Z,80.60
2023-03-16T17:42:51.251Z,73.50
2023-03-16T17:45:37.123Z,71.70
2023-03-16T17:49:11.546Z,108.10
2023-03-16T17:52:38.746Z,164.60
2023-03-16T17:55:20.960Z,141.30
2023-03-16T17:58:35.198Z,111.70
2023-03-16T18:01:39.309Z,146.40
2023-03-16T18:05:07.184Z,178.50
2023-03-16T18:07:48.988Z,156.60
2023-03-16T18:11:09.510Z,128.70
2023-03-16T18:18:19.426Z,141.70
2023-03-16T18:25:40.732Z,112.30
2023-03-16T18:28:27.738Z,102.60
2023-03-16T18:31:12.393Z,94.90
2023-03-16T18:34:01.288Z,102.40
2023-03-16T18:36:48.561Z,117.00
2023-03-16T18:39:27.479Z,115.40
2023-03-16T18:42:04.726Z,116.30
2023-03-16T18:44:53.795Z,117.20
2023-03-16T18:48:05.639Z,123.60
2023-03-16T18:50:54.801Z,236.70
2023-03-16T18:54:02.861Z,206.10
2023-03-16T19:00:35.570Z,199.10
2023-03-16T19:03:46.924Z,200.70
2023-03-16T19:06:44.010Z,226.10
2023-03-16T19:09:55.452Z,246.90
2023-03-16T19:16:26.485Z,227.40
2023-03-16T19:19:20.038Z,300.90
2023-03-16T19:22:44.988Z,320.00
2023-03-16T19:25:34.649Z,309.50
2023-03-16T19:28:33.648Z,308.00
2023-03-16T19:31:49.906Z,298.10
2023-03-16T19:34:30.510Z,295.40
2023-03-16T19:37:44.794Z,273.50
2023-03-16T19:41:26.825Z,321.20
2023-03-16T19:45:01.793Z,355.00
2023-03-16T19:48:25.302Z,439.70
2023-03-16T19:51:36.846Z,357.80
2023-03-16T19:54:44.683Z,365.00
2023-03-16T19:57:23.317Z,293.80
2023-03-16T19:59:59.751Z,204.60
2023-03-16T20:02:44.528Z,302.00
2023-03-16T20:05:20.953Z,335.30
2023-03-16T20:08:03.421Z,255.90
2023-03-16T20:10:36.234Z,227.60
2023-03-16T20:13:07.133Z,210.10
2023-03-16T20:15:36.988Z,189.10
2023-03-16T20:18:16.216Z,232.30
2023-03-16T20:20:45.660Z,221.00
2023-03-16T20:23:30.311Z,171.90
2023-03-16T20:26:03.044Z,182.50
2023-03-16T20:28:43.868Z,211.70
2023-03-16T20:31:29.596Z,157.60
2023-03-16T20:33:58.880Z,155.00
2023-03-16T20:36:27.953Z,170.50
2023-03-16T20:39:03.915Z,177.50
2023-03-16T20:41:39.570Z,164.60
2023-03-16T20:44:26.294Z,161.10
2023-03-16T20:47:01.276Z,190.70
2023-03-16T20:49:37.999Z,203.60
2023-03-16T20:52:30.443Z,207.00
2023-03-16T20:55:06.201Z,181.80
2023-03-16T20:57:46.614Z,202.10
2023-03-16T21:00:30.728Z,212.70
2023-03-16T21:03:05.410Z,201.30
2023-03-16T21:05:41.449Z,201.80
2023-03-16T21:08:09.629Z,199.00
2023-03-16T21:10:43.231Z,197.40
2023-03-16T21:13:41.676Z,202.20
2023-03-16T21:16:26.660Z,204.50
2023-03-16T21:19:11.269Z,229.30
2023-03-16T21:22:07.122Z,259.90
2023-03-16T21:24:49.081Z,248.00
2023-03-16T21:30:28.935Z,285.10
2023-03-16T21:33:10.188Z,254.70
2023-03-16T21:35:46.148Z,258.40
2023-03-16T21:38:22.571Z,265.70
2023-03-16T21:40:59.256Z,246.10
2023-03-16T21:43:31.352Z,231.80
2023-03-16T21:46:00.363Z,233.40
2023-03-16T21:48:44.216Z,192.20
2023-03-16T21:51:33.893Z,229.70
2023-03-16T21:54:09.085Z,224.00
2023-03-16T21:56:43.728Z,213.00
2023-03-16T21:59:15.882Z,220.40
2023-03-16T22:02:01.254Z,165.60
2023-03-16T22:04:34.804Z,182.80
2023-03-16T22:07:11.722Z,187.90
2023-03-16T22:09:51.369Z,183.60
2023-03-16T22:12:22.948Z,188.10
2023-03-16T22:15:06.329Z,197.90
2023-03-16T22:17:58.264Z,192.10
2023-03-16T22:20:32.806Z,182.30
2023-03-16T22:23:08.749Z,186.20
2023-03-16T22:25:49.570Z,177.60
2023-03-16T22:28:34.325Z,179.50
2023-03-16T22:31:16.118Z,185.80
2023-03-16T22:33:55.341Z,180.00
2023-03-16T22:36:39.229Z,182.20
2023-03-16T22:43:20.178Z,134.50
2023-03-16T22:46:15.091Z,149.20
2023-03-16T22:49:02.298Z,126.10
2023-03-16T22:51:40.873Z,113.20
2023-03-16T22:54:32.801Z,124.50
2023-03-16T22:57:27.675Z,116.10
2023-03-16T23:00:36.077Z,144.10
2023-03-16T23:03:36.394Z,168.30
2023-03-16T23:06:26.185Z,168.40
2023-03-16T23:09:20.507Z,161.20
2023-03-16T23:12:03.637Z,195.00
2023-03-16T23:14:38.253Z,138.20
2023-03-16T23:17:24.893Z,144.90
2023-03-16T23:20:00.487Z,142.20
2023-03-16T23:22:33.981Z,159.40
2023-03-16T23:25:05.756Z,141.50
2023-03-16T23:30:32.948Z,147.80
2023-03-16T23:33:12.396Z,157.20
2023-03-16T23:35:51.045Z,142.80
2023-03-16T23:38:22.891Z,146.20
2023-03-16T23:40:56.574Z,168.90
2023-03-16T23:43:30.713Z,158.50
2023-03-16T23:46:06.745Z,164.80
2023-03-16T23:48:53.768Z,173.90
2023-03-16T23:51:35.698Z,166.00
2023-03-16T23:54:29.536Z,166.60
2023-03-16T23:57:04.289Z,155.40
2023-03-16T23:59:32.689Z,164.70
